createdAt,value
2019-04-22T00:07:11.747Z,99.90
2019-04-22T00:10:09.656Z,99.90
2019-04-22T00:13:06.664Z,99.90
2019-04-22T00:15:42.203Z,99.90
2019-04-22T00:18:27.678Z,99.90
2019-04-22T00:21:04.773Z,99.90
2019-04-22T00:23:59.916Z,99.90
2019-04-22T00:30:00.023Z,99.90
2019-04-22T00:35:14.731Z,99.90
2019-04-22T00:37:56.706Z,99.90
2019-04-22T00:40:42.751Z,99.90
2019-04-22T00:43:24.312Z,99.90
2019-04-22T00:46:02.709Z,99.90
2019-04-22T00:49:05.785Z,99.90
2019-04-22T00:51:22.458Z,99.90
2019-04-22T00:54:08.722Z,99.90
2019-04-22T00:57:01.242Z,99.90
2019-04-22T00:59:55.435Z,99.90
2019-04-22T01:02:30.606Z,99.90
2019-04-22T01:05:17.008Z,99.90
2019-04-22T01:08:07.081Z,99.90
2019-04-22T01:10:57.154Z,99.90
2019-04-22T01:13:26.186Z,99.90
2019-04-22T01:16:20.510Z,99.90
2019-04-22T01:19:00.562Z,99.90
2019-04-22T01:22:12.853Z,99.90
2019-04-22T01:25:02.458Z,99.90
2019-04-22T01:27:44.824Z,99.90
2019-04-22T01:30:28.795Z,99.90
2019-04-22T01:32:57.968Z,99.90
2019-04-22T01:35:56.861Z,99.90
2019-04-22T01:38:36.638Z,99.90
2019-04-22T01:41:20.281Z,99.90
2019-04-22T01:44:15.855Z,99.90
2019-04-22T01:46:57.031Z,99.90
2019-04-22T01:49:30.150Z,99.90
2019-04-22T01:54:35.438Z,99.90
2019-04-22T01:56:59.931Z,99.90
2019-04-22T01:59:28.067Z,99.90
2019-04-22T02:02:04.489Z,99.90
2019-04-22T02:04:38.253Z,99.90
2019-04-22T02:07:09.306Z,99.90
2019-04-22T02:09:37.791Z,99.90
2019-04-22T02:14:41.052Z,99.90
2019-04-22T02:17:17.489Z,99.90
2019-04-22T02:19:45.649Z,99.90
2019-04-22T02:22:27.545Z,99.90
2019-04-22T02:24:47.073Z,99.90
2019-04-22T02:27:17.391Z,99.90
2019-04-22T02:29:47.653Z,99.90
2019-04-22T02:35:01.185Z,99.90
2019-04-22T02:37:22.887Z,99.90
2019-04-22T02:39:57.252Z,99.90
2019-04-22T02:42:16.535Z,99.90
2019-04-22T02:45:07.143Z,99.90
2019-04-22T02:50:02.452Z,99.90
2019-04-22T02:52:35.374Z,99.90
2019-04-22T02:55:07.177Z,99.90
2019-04-22T02:57:35.648Z,99.90
2019-04-22T03:02:50.698Z,99.90
2019-04-22T03:05:09.126Z,99.90
2019-04-22T03:07:41.104Z,99.90
2019-04-22T03:10:10.026Z,99.90
2019-04-22T03:12:35.259Z,99.90
2019-04-22T03:15:09.499Z,99.90
2019-04-22T03:22:47.363Z,99.90
2019-04-22T03:27:40.237Z,99.90
2019-04-22T03:37:53.305Z,99.90
2019-04-22T03:45:31.957Z,99.90
2019-04-22T03:50:28.271Z,99.90
2019-04-22T03:53:09.008Z,99.90
2019-04-22T03:58:11.155Z,99.90
2019-04-22T04:00:43.414Z,99.90
2019-04-22T04:03:09.422Z,99.90
2019-04-22T04:05:49.281Z,99.90
2019-04-22T04:08:18.271Z,99.90
2019-04-22T04:15:34.261Z,99.90
2019-04-22T04:18:10.924Z,99.90
2019-04-22T04:26:28.876Z,99.90
2019-04-22T04:28:43.823Z,99.90
2019-04-22T04:31:25.024Z,99.90
2019-04-22T04:33:28.910Z,99.90
2019-04-22T04:36:11.561Z,99.90
2019-04-22T04:38:28.759Z,99.90
2019-04-22T04:41:04.330Z,99.90
2019-04-22T04:43:37.304Z,99.90
2019-04-22T04:46:07.236Z,99.90
2019-04-22T04:48:42.587Z,99.90
2019-04-22T04:53:34.133Z,99.90
2019-04-22T04:56:10.961Z,99.90
2019-04-22T04:58:56.562Z,99.90
2019-04-22T05:01:10.957Z,99.90
2019-04-22T05:03:49.366Z,99.90
2019-04-22T05:06:12.604Z,99.90
2019-04-22T05:09:03.645Z,99.90
2019-04-22T05:11:16.171Z,99.90
2019-04-22T05:16:32.517Z,99.90
2019-04-22T05:23:47.091Z,99.90
2019-04-22T05:26:26.089Z,99.90
2019-04-22T05:29:06.599Z,99.90
2019-04-22T05:33:51.055Z,99.90
2019-04-22T05:36:20.710Z,99.90
2019-04-22T05:38:53.716Z,99.90
2019-04-22T05:41:21.990Z,99.90
2019-04-22T05:44:00.170Z,99.90
2019-04-22T05:46:22.454Z,99.90
2019-04-22T05:49:15.045Z,99.90
2019-04-22T05:51:31.456Z,99.90
2019-04-22T05:54:05.823Z,99.90
2019-04-22T05:56:32.813Z,99.90
2019-04-22T06:01:43.530Z,99.90
2019-04-22T06:04:14.789Z,99.90
2019-04-22T06:06:36.818Z,99.90
2019-04-22T06:09:04.015Z,99.90
2019-04-22T06:11:34.059Z,99.90
2019-04-22T06:14:07.879Z,99.90
2019-04-22T06:16:45.763Z,99.90
2019-04-22T06:19:18.806Z,99.90
2019-04-22T06:21:48.076Z,99.90
2019-04-22T06:24:23.519Z,99.90
2019-04-22T06:29:19.438Z,99.90
2019-04-22T06:32:15.212Z,99.90
2019-04-22T06:34:26.556Z,99.90
2019-04-22T06:37:05.328Z,99.90
2019-04-22T06:39:28.154Z,99.90
2019-04-22T06:42:06.922Z,99.90
2019-04-22T06:44:30.938Z,99.90
2019-04-22T06:47:00.123Z,99.90
2019-04-22T06:49:33.516Z,99.90
2019-04-22T06:52:05.193Z,99.90
2019-04-22T06:54:32.914Z,99.90
2019-04-22T06:56:59.704Z,99.90
2019-04-22T06:59:34.451Z,99.90
2019-04-22T07:02:14.914Z,99.90
2019-04-22T07:04:33.849Z,99.50
2019-04-22T07:07:08.071Z,98.70
2019-04-22T07:09:41.459Z,97.40
2019-04-22T07:12:11.889Z,97.10
2019-04-22T07:14:42.107Z,96.80
2019-04-22T07:17:33.228Z,96.50
2019-04-22T07:19:45.310Z,96.00
2019-04-22T07:22:29.277Z,95.50
2019-04-22T07:24:46.324Z,94.60
2019-04-22T07:27:18.899Z,94.50
2019-04-22T07:29:58.810Z,93.40
2019-04-22T07:32:29.768Z,92.30
2019-04-22T07:34:52.201Z,90.90
2019-04-22T07:37:31.749Z,89.20
2019-04-22T07:39:52.666Z,90.10
2019-04-22T07:42:25.919Z,85.50
2019-04-22T07:45:01.093Z,85.50
2019-04-22T07:50:03.964Z,82.50
2019-04-22T07:52:31.863Z,80.30
2019-04-22T07:54:56.930Z,76.70
2019-04-22T07:57:47.357Z,74.40
2019-04-22T08:02:40.500Z,73.50
2019-04-22T08:05:20.916Z,72.80
2019-04-22T08:07:36.014Z,71.30
2019-04-22T08:12:39.160Z,67.70
2019-04-22T08:15:06.089Z,65.10
2019-04-22T08:20:19.275Z,64.10
2019-04-22T08:22:43.076Z,63.00
2019-04-22T08:25:10.549Z,61.80
2019-04-22T08:27:46.327Z,60.80
2019-04-22T08:30:20.442Z,59.30
2019-04-22T08:32:45.934Z,58.60
2019-04-22T08:35:20.255Z,58.00
2019-04-22T08:37:52.502Z,58.30
2019-04-22T08:40:32.509Z,58.50
2019-04-22T08:45:28.471Z,58.50
2019-04-22T08:47:48.226Z,57.10
2019-04-22T08:50:39.467Z,55.80
2019-04-22T08:53:14.203Z,55.20
2019-04-22T08:55:31.355Z,55.10
2019-04-22T08:58:16.533Z,54.30
2019-04-22T09:00:31.380Z,54.50
2019-04-22T09:08:07.473Z,53.90
2019-04-22T09:10:37.844Z,54.30
2019-04-22T09:13:08.207Z,53.70
2019-04-22T09:15:34.561Z,53.20
2019-04-22T09:18:08.760Z,52.80
2019-04-22T09:20:40.643Z,52.90
2019-04-22T09:23:21.624Z,53.30
2019-04-22T09:25:41.430Z,52.60
2019-04-22T09:28:15.118Z,52.70
2019-04-22T09:30:47.050Z,52.40
2019-04-22T09:35:51.700Z,52.00
2019-04-22T09:40:50.364Z,52.40
2019-04-22T09:43:25.863Z,52.80
2019-04-22T09:45:53.143Z,52.00
2019-04-22T09:48:26.716Z,52.10
2019-04-22T09:50:54.015Z,51.10
2019-04-22T09:55:56.753Z,51.20
2019-04-22T09:58:23.574Z,51.90
2019-04-22T10:01:34.488Z,51.90
2019-04-22T10:09:12.939Z,50.00
2019-04-22T10:11:32.662Z,50.50
2019-04-22T10:14:12.371Z,50.50
2019-04-22T10:16:33.858Z,51.30
2019-04-22T10:21:40.725Z,49.30
2019-04-22T10:24:03.456Z,49.40
2019-04-22T10:29:05.963Z,50.00
2019-04-22T10:31:46.552Z,48.70
2019-04-22T10:34:02.625Z,47.90
2019-04-22T10:36:21.339Z,46.90
2019-04-22T10:38:50.839Z,47.90
2019-04-22T10:41:20.726Z,47.10
2019-04-22T10:43:51.010Z,47.30
2019-04-22T10:46:21.898Z,46.30
2019-04-22T10:48:52.778Z,45.80
2019-04-22T10:51:22.394Z,45.20
2019-04-22T10:53:53.328Z,45.10
2019-04-22T10:56:23.083Z,46.50
2019-04-22T10:58:52.939Z,45.40
2019-04-22T11:01:23.272Z,46.20
2019-04-22T11:03:53.139Z,46.50
2019-04-22T11:06:23.328Z,47.20
2019-04-22T11:08:57.517Z,47.30
2019-04-22T11:11:34.851Z,47.10
2019-04-22T11:13:56.031Z,46.30
2019-04-22T11:16:25.783Z,45.70
2019-04-22T11:18:55.865Z,46.30
2019-04-22T11:21:25.528Z,46.50
2019-04-22T11:23:56.396Z,46.20
2019-04-22T11:26:26.094Z,46.30
2019-04-22T11:28:56.000Z,46.50
2019-04-22T11:31:26.392Z,45.90
2019-04-22T11:33:56.689Z,46.20
2019-04-22T11:36:30.126Z,45.60
2019-04-22T11:39:01.995Z,46.20
2019-04-22T11:41:28.592Z,46.00
2019-04-22T11:43:59.118Z,46.00
2019-04-22T11:46:29.529Z,45.30
2019-04-22T11:49:00.287Z,46.00
2019-04-22T11:51:29.920Z,45.90
2019-04-22T11:54:00.867Z,45.70
2019-04-22T11:56:31.259Z,45.50
2019-04-22T11:59:00.813Z,45.90
2019-04-22T12:01:30.827Z,45.50
2019-04-22T12:04:01.956Z,44.90
2019-04-22T12:06:31.822Z,46.00
2019-04-22T12:09:01.640Z,44.50
2019-04-22T12:11:32.419Z,44.00
2019-04-22T12:14:02.189Z,43.20
2019-04-22T12:16:31.731Z,42.80
2019-04-22T12:19:01.171Z,42.20
2019-04-22T12:21:31.105Z,41.60
2019-04-22T12:24:01.126Z,41.30
2019-04-22T12:26:32.367Z,41.10
2019-04-22T12:29:02.894Z,40.70
2019-04-22T12:31:33.491Z,41.40
2019-04-22T12:34:03.701Z,41.20
2019-04-22T12:36:33.160Z,40.70
2019-04-22T12:39:03.308Z,40.40
2019-04-22T12:41:33.821Z,40.00
2019-04-22T12:44:03.403Z,39.20
2019-04-22T12:46:34.166Z,38.40
2019-04-22T12:49:04.523Z,37.90
2019-04-22T12:51:34.096Z,38.40
2019-04-22T12:54:03.592Z,38.50
2019-04-22T12:56:33.659Z,39.30
2019-04-22T12:59:03.830Z,39.00
2019-04-22T13:01:33.380Z,40.00
2019-04-22T13:04:07.803Z,40.40
2019-04-22T13:06:35.416Z,38.60
2019-04-22T13:09:08.527Z,38.10
2019-04-22T13:11:38.873Z,39.00
2019-04-22T13:14:10.557Z,39.20
2019-04-22T13:16:40.834Z,37.80
2019-04-22T13:19:13.185Z,38.70
2019-04-22T13:21:42.755Z,38.70
2019-04-22T13:24:13.306Z,38.60
2019-04-22T13:26:43.143Z,38.10
2019-04-22T13:29:12.894Z,37.70
2019-04-22T13:31:42.568Z,37.30
2019-04-22T13:34:25.486Z,36.40
2019-04-22T13:36:45.372Z,37.60
2019-04-22T13:39:14.325Z,38.50
2019-04-22T13:41:49.727Z,37.10
2019-04-22T13:44:14.947Z,37.20
2019-04-22T13:47:07.135Z,36.40
2019-04-22T13:49:54.044Z,35.50
2019-04-22T13:52:20.660Z,35.90
2019-04-22T13:54:50.404Z,36.50
2019-04-22T13:57:04.884Z,37.40
2019-04-22T13:59:28.756Z,37.20
2019-04-22T14:02:08.758Z,36.40
2019-04-22T14:04:40.930Z,36.80
2019-04-22T14:07:10.699Z,36.00
2019-04-22T14:09:40.169Z,36.50
2019-04-22T14:12:13.396Z,37.40
2019-04-22T14:14:42.822Z,36.10
2019-04-22T14:17:13.099Z,35.70
2019-04-22T14:19:42.730Z,35.50
2019-04-22T14:22:13.684Z,35.70
2019-04-22T14:24:44.727Z,35.90
2019-04-22T14:27:27.690Z,36.60
2019-04-22T14:29:45.543Z,36.40
2019-04-22T14:32:19.311Z,36.10
2019-04-22T14:34:47.003Z,37.00
2019-04-22T14:37:16.546Z,37.10
2019-04-22T14:39:46.257Z,36.50
2019-04-22T14:42:36.454Z,35.40
2019-04-22T14:47:42.676Z,36.70
2019-04-22T14:50:16.061Z,37.00
2019-04-22T14:52:42.903Z,37.40
2019-04-22T14:55:01.630Z,38.10
2019-04-22T14:57:23.349Z,37.00
2019-04-22T14:59:53.729Z,36.70
2019-04-22T15:02:23.701Z,37.20
2019-04-22T15:04:54.243Z,37.20
2019-04-22T15:07:24.991Z,37.30
2019-04-22T15:09:55.733Z,38.50
2019-04-22T15:12:31.097Z,37.30
2019-04-22T15:14:57.568Z,36.40
2019-04-22T15:17:52.378Z,36.80
2019-04-22T15:20:44.169Z,38.10
2019-04-22T15:23:14.731Z,38.00
2019-04-22T15:25:44.330Z,38.70
2019-04-22T15:28:15.246Z,39.00
2019-04-22T15:30:45.705Z,39.30
2019-04-22T15:33:15.312Z,39.10
2019-04-22T15:35:45.186Z,39.70
2019-04-22T15:38:15.561Z,39.00
2019-04-22T15:40:45.181Z,39.60
2019-04-22T15:43:14.961Z,39.50
2019-04-22T15:45:44.551Z,39.80
2019-04-22T15:48:14.707Z,40.60
2019-04-22T15:50:44.715Z,40.30
2019-04-22T15:53:15.588Z,39.60
2019-04-22T15:55:45.317Z,39.50
2019-04-22T15:58:15.431Z,39.90
2019-04-22T16:00:58.275Z,39.60
2019-04-22T16:03:16.507Z,39.60
2019-04-22T16:05:46.120Z,39.40
2019-04-22T16:08:16.995Z,39.70
2019-04-22T16:10:48.049Z,38.60
2019-04-22T16:13:24.308Z,38.10
2019-04-22T16:15:49.036Z,38.20
2019-04-22T16:18:20.019Z,37.90
2019-04-22T16:20:50.343Z,38.10
2019-04-22T16:23:44.769Z,37.80
2019-04-22T16:26:44.400Z,37.80
2019-04-22T16:29:15.845Z,37.30
2019-04-22T16:31:45.382Z,38.00
2019-04-22T16:34:15.552Z,38.00
2019-04-22T16:36:45.106Z,37.80
2019-04-22T16:39:15.362Z,38.80
2019-04-22T16:41:44.851Z,38.20
2019-04-22T16:44:14.488Z,38.50
2019-04-22T16:46:43.935Z,38.40
2019-04-22T16:49:13.969Z,38.50
2019-04-22T16:51:43.529Z,39.30
2019-04-22T16:54:13.845Z,40.10
2019-04-22T16:56:43.881Z,41.50
2019-04-22T16:59:14.777Z,42.20
2019-04-22T17:02:04.220Z,42.50
2019-04-22T17:04:46.746Z,42.70
2019-04-22T17:07:20.415Z,42.10
2019-04-22T17:09:50.091Z,41.70
2019-04-22T17:12:19.774Z,42.60
2019-04-22T17:14:54.570Z,42.60
2019-04-22T17:19:55.536Z,43.10
2019-04-22T17:22:25.938Z,44.50
2019-04-22T17:24:56.079Z,44.40
2019-04-22T17:27:26.600Z,45.20
2019-04-22T17:29:56.935Z,45.50
2019-04-22T17:32:27.367Z,45.70
2019-04-22T17:34:57.642Z,46.60
2019-04-22T17:37:31.500Z,47.20
2019-04-22T17:40:15.840Z,47.50
2019-04-22T17:42:50.076Z,47.90
2019-04-22T17:45:28.483Z,47.90
2019-04-22T17:48:15.551Z,48.20
2019-04-22T17:50:50.887Z,48.30
2019-04-22T17:53:26.179Z,48.90
2019-04-22T17:55:57.594Z,48.80
2019-04-22T17:58:25.858Z,48.80
2019-04-22T18:00:55.545Z,49.00
2019-04-22T18:03:21.266Z,49.20
2019-04-22T18:05:47.992Z,49.10
2019-04-22T18:08:30.132Z,49.20
2019-04-22T18:11:06.316Z,49.30
2019-04-22T18:13:39.441Z,49.70
2019-04-22T18:16:08.059Z,49.70
2019-04-22T18:18:37.410Z,50.20
2019-04-22T18:21:06.323Z,50.10
2019-04-22T18:23:26.328Z,50.30
2019-04-22T18:26:08.180Z,50.80
2019-04-22T18:28:46.427Z,50.90
2019-04-22T18:31:06.635Z,51.00
2019-04-22T18:33:39.829Z,50.90
2019-04-22T18:36:09.456Z,51.10
2019-04-22T18:38:59.788Z,51.30
2019-04-22T18:41:12.816Z,51.30
2019-04-22T18:43:51.669Z,51.40
2019-04-22T18:46:25.416Z,51.60
2019-04-22T18:48:54.081Z,51.40
2019-04-22T18:51:29.145Z,52.00
2019-04-22T18:54:18.008Z,51.50
2019-04-22T18:56:59.521Z,51.50
2019-04-22T18:59:18.422Z,51.40
2019-04-22T19:01:42.252Z,51.20
2019-04-22T19:04:19.354Z,51.20
2019-04-22T19:07:01.675Z,51.40
2019-04-22T19:09:43.885Z,51.20
2019-04-22T19:12:24.100Z,50.70
2019-04-22T19:17:27.194Z,50.10
2019-04-22T19:19:53.492Z,50.50
2019-04-22T19:22:22.382Z,50.10
2019-04-22T19:24:41.767Z,50.40
2019-04-22T19:27:16.073Z,50.40
2019-04-22T19:29:52.388Z,50.50
2019-04-22T19:32:23.109Z,50.70
2019-04-22T19:34:51.095Z,50.80
2019-04-22T19:37:20.655Z,51.10
2019-04-22T19:40:03.251Z,51.10
2019-04-22T19:42:30.811Z,51.20
2019-04-22T19:44:55.221Z,51.40
2019-04-22T19:47:33.670Z,51.70
2019-04-22T19:50:23.078Z,51.70
2019-04-22T19:53:10.589Z,51.80
2019-04-22T19:55:45.036Z,52.10
2019-04-22T19:58:31.537Z,52.50
2019-04-22T20:01:37.107Z,52.40
2019-04-22T20:07:40.594Z,53.00
2019-04-22T20:10:25.286Z,53.30
2019-04-22T20:13:05.099Z,53.70
2019-04-22T20:15:33.488Z,53.90
2019-04-22T20:18:35.257Z,54.20
2019-04-22T20:21:26.765Z,55.20
2019-04-22T20:24:00.823Z,54.80
2019-04-22T20:26:45.431Z,55.50
2019-04-22T20:29:18.823Z,55.90
2019-04-22T20:34:36.009Z,56.70
2019-04-22T20:37:10.449Z,57.00
2019-04-22T20:39:39.669Z,57.40
2019-04-22T20:42:21.299Z,57.90
2019-04-22T20:44:56.756Z,58.20
2019-04-22T20:47:23.729Z,58.40
2019-04-22T20:50:21.685Z,59.20
2019-04-22T20:53:16.161Z,59.40
2019-04-22T20:55:36.840Z,59.90
2019-04-22T20:58:28.551Z,60.20
2019-04-22T21:01:10.349Z,60.70
2019-04-22T21:03:56.645Z,61.20
2019-04-22T21:06:36.843Z,61.50
2019-04-22T21:09:27.308Z,62.00
2019-04-22T21:12:13.692Z,62.50
2019-04-22T21:15:12.526Z,62.90
2019-04-22T21:20:36.535Z,63.70
2019-04-22T21:26:11.141Z,64.40
2019-04-22T21:28:38.307Z,64.80
2019-04-22T21:31:41.311Z,65.10
2019-04-22T21:34:10.270Z,65.60
2019-04-22T21:36:43.014Z,65.80
2019-04-22T21:39:15.585Z,66.20
2019-04-22T21:41:58.918Z,66.60
2019-04-22T21:44:35.133Z,67.00
2019-04-22T21:47:30.120Z,67.30
2019-04-22T21:50:36.092Z,67.90
2019-04-22T21:53:00.829Z,68.30
2019-04-22T21:55:37.615Z,68.50
2019-04-22T21:58:53.303Z,69.10
2019-04-22T22:04:25.177Z,70.40
2019-04-22T22:07:09.823Z,71.20
2019-04-22T22:10:09.340Z,71.90
2019-04-22T22:13:03.345Z,72.60
2019-04-22T22:15:35.103Z,73.90
2019-04-22T22:18:19.991Z,75.10
2019-04-22T22:21:34.479Z,76.40
2019-04-22T22:23:56.023Z,77.70
2019-04-22T22:26:43.085Z,79.20
2019-04-22T22:29:36.742Z,80.50
2019-04-22T22:38:05.257Z,83.50
2019-04-22T22:40:21.941Z,86.60
2019-04-22T22:43:18.757Z,89.20
2019-04-22T22:46:12.064Z,90.10
2019-04-22T22:48:51.444Z,90.80
2019-04-22T22:51:48.589Z,91.80
2019-04-22T22:54:33.021Z,92.40
2019-04-22T22:57:01.956Z,92.80
2019-04-22T22:59:33.215Z,93.20
2019-04-22T23:02:04.363Z,93.60
2019-04-22T23:07:32.278Z,94.40
2019-04-22T23:12:55.716Z,95.30
2019-04-22T23:15:33.881Z,95.60
2019-04-22T23:18:10.097Z,96.10
2019-04-22T23:20:59.640Z,96.80
2019-04-22T23:24:05.671Z,97.10
2019-04-22T23:29:32.211Z,98.20
2019-04-22T23:32:21.191Z,98.70
2019-04-22T23:35:15.152Z,98.70
2019-04-22T23:38:03.473Z,99.20
2019-04-22T23:40:35.795Z,99.20
2019-04-22T23:43:07.098Z,99.50
2019-04-22T23:48:10.189Z,99.50
2019-04-22T23:51:07.270Z,99.90
2019-04-22T23:56:28.178Z,99.90
2019-04-22T23:59:14.920Z,99.90
